Frontier Kotobuki — 3EXC5 — position and weather

sailwx.info

Track history (hours):
 
Tides and Currents Weather Stations Pressure Air Temp Water Temp Dewpoint Dewpoint Depression Visibility Wind Speed Wind Dir Waves Ship Positions

Frontier Kotobuki

Last reported at 2016-May-30 16:30 UTC. Time now 2016-Jul-01 13:36 UTC.
Position S 32°38' E 030°27'.
Warning: this ship's position is 31 days out of date.

Length 290 m; draft 17.2 m.

Type: Cargo ship. MMSI: 355036000.

Date/timePositionNaut miles runAvg speedWind from/ knotsBaromVisibWave heightAir tempDewpointWater temp
2016-May-30 16:30S 32°38' E 030°27'1414.6
2016-May-30 15:33S 32°32' E 030°42'1515.0
2016-May-30 14:33S 32°25' E 030°58'6114.8
2016-May-30 10:26S 31°59' E 032°03'1213.7
2016-May-30 09:33S 31°54' E 032°15'1513.2
2016-May-30 08:23S 31°47' E 032°32'1112.6
2016-May-30 07:33S 31°43' E 032°43'1312.8
2016-May-30 06:32S 31°37' E 032°57'1312.1
2016-May-30 05:26S 31°31' E 033°11'1411.4
2016-May-30 04:10S 31°25' E 033°26'  
Track history (hours):
 
Tides and Currents Weather Stations Pressure Air Temp Water Temp Dewpoint Dewpoint Depression Visibility Wind Speed Wind Dir Waves Ship Positions

Frontier Kotobuki

Last reported at 2016-May-30 16:30 UTC. Time now 2016-Jul-01 13:36 UTC.
Position S 32°38' E 030°27'.
Warning: this ship's position is 31 days out of date.

Length 290 m; draft 17.2 m.

Type: Cargo ship. MMSI: 355036000.

Date/timePositionNaut miles runAvg speedWind from/ knotsBaromVisibWave heightAir tempDewpointWater temp
2016-May-30 16:30S 32°38' E 030°27'1414.6
2016-May-30 15:33S 32°32' E 030°42'1515.0
2016-May-30 14:33S 32°25' E 030°58'6114.8
2016-May-30 10:26S 31°59' E 032°03'1213.7
2016-May-30 09:33S 31°54' E 032°15'1513.2
2016-May-30 08:23S 31°47' E 032°32'1112.6
2016-May-30 07:33S 31°43' E 032°43'1312.8
2016-May-30 06:32S 31°37' E 032°57'1312.1
2016-May-30 05:26S 31°31' E 033°11'1411.4
2016-May-30 04:10S 31°25' E 033°26'  

Dump ship's entire track history